Time;durP1;ratioP1;P1;durP2;ratioP2;P2;SDS_P1;SDS_P2;PMS_P1;PMS_P2;Temp;Humidity;BMP_temperature;BMP_pressure;BME280_temperature;BME280_humidity;BME280_pressure;Samples;Min_cycle;Max_cycle;Signal;HPM_P1;HPM_P2
2022/11/20 00:01:17;;;;;;;6.28;3.58;;;3.70;99.90;;;;;;5005156;28;20034;-74
2022/11/20 00:03:44;;;;;;;13.32;6.45;;;3.70;99.90;;;;;;4986289;28;20030;-74
2022/11/20 00:06:14;;;;;;;8.45;5.95;;;3.70;99.90;;;;;;4990222;28;20085;-74
2022/11/20 00:08:39;;;;;;;10.27;6.00;;;3.70;99.90;;;;;;4991422;28;20031;-74
2022/11/20 00:11:15;;;;;;;12.98;6.25;;;3.70;99.90;;;;;;4964673;28;20160;-74
2022/11/20 00:13:41;;;;;;;13.13;7.00;;;3.70;99.90;;;;;;4986275;28;20084;-74
2022/11/20 00:16:10;;;;;;;9.88;5.65;;;3.70;99.90;;;;;;4989083;28;20094;-74
2022/11/20 00:18:36;;;;;;;10.23;5.28;;;3.70;99.90;;;;;;5000636;28;20035;-74
2022/11/20 00:21:10;;;;;;;9.98;5.63;;;3.70;99.90;;;;;;5004374;28;20098;-73
2022/11/20 00:23:36;;;;;;;14.57;4.90;;;3.70;99.90;;;;;;4986095;28;20117;-73
2022/11/20 00:26:09;;;;;;;10.18;4.57;;;3.70;99.90;;;;;;4989791;28;20113;-73
2022/11/20 00:28:34;;;;;;;11.70;5.55;;;3.70;99.90;;;;;;5000335;28;20050;-73
2022/11/20 00:31:06;;;;;;;9.60;5.55;;;3.80;99.90;;;;;;4989641;28;20093;-74
2022/11/20 00:33:32;;;;;;;14.27;5.35;;;3.70;99.90;;;;;;4985880;28;20031;-74
2022/11/20 00:36:07;;;;;;;9.55;5.07;;;3.70;99.90;;;;;;4989376;28;20475;-73
2022/11/20 00:38:34;;;;;;;13.55;5.65;;;3.70;99.90;;;;;;4985495;28;20026;-73
2022/11/20 00:41:03;;;;;;;10.30;5.35;;;3.70;99.90;;;;;;5003335;28;20075;-73
2022/11/20 00:43:28;;;;;;;13.80;5.75;;;3.60;99.90;;;;;;4985463;28;20030;-74
2022/11/20 00:46:04;;;;;;;8.57;4.45;;;3.60;99.90;;;;;;4988120;28;20507;-73
2022/11/20 00:48:30;;;;;;;8.05;3.75;;;3.70;99.90;;;;;;5000150;28;20522;-74
2022/11/20 00:50:56;;;;;;;9.55;5.25;;;3.60;99.90;;;;;;4989055;28;20114;-73
2022/11/20 00:53:23;;;;;;;9.32;5.63;;;3.60;99.90;;;;;;4985297;28;20034;-73
2022/11/20 00:56:04;;;;;;;11.45;4.57;;;3.60;99.90;;;;;;4989372;28;20078;-73
2022/11/20 00:58:36;;;;;;;10.75;4.65;;;3.60;99.90;;;;;;4985011;28;20030;-73
2022/11/20 01:01:06;;;;;;;11.05;5.75;;;3.60;99.90;;;;;;4988648;28;20044;-73
2022/11/20 01:03:34;;;;;;;11.90;5.90;;;3.60;99.90;;;;;;4993228;28;20026;-73
2022/11/20 01:06:07;;;;;;;8.32;4.68;;;3.60;99.90;;;;;;4974630;28;20530;-73
2022/11/20 01:08:35;;;;;;;10.18;4.95;;;3.60;99.90;;;;;;4999889;28;20874;-73
2022/11/20 01:11:14;;;;;;;8.85;4.50;;;3.60;99.90;;;;;;4987446;28;20104;-73
2022/11/20 01:13:41;;;;;;;13.90;5.38;;;3.70;99.90;;;;;;4999931;28;20087;-74
2022/11/20 01:16:09;;;;;;;10.68;5.35;;;3.70;99.90;;;;;;4988885;28;20050;-73
2022/11/20 01:18:38;;;;;;;12.30;4.00;;;3.70;99.90;;;;;;4984796;28;20117;-73
2022/11/20 01:21:07;;;;;;;13.48;7.30;;;3.80;99.90;;;;;;5003490;28;20042;-74
2022/11/20 01:23:37;;;;;;;12.23;5.05;;;3.70;99.90;;;;;;4984775;28;20371;-74
2022/11/20 01:26:07;;;;;;;14.85;5.35;;;3.80;99.90;;;;;;5003082;28;20441;-74
2022/11/20 01:28:33;;;;;;;14.02;5.38;;;3.70;99.90;;;;;;4984802;28;20022;-73
2022/11/20 01:30:59;;;;;;;13.25;7.35;;;3.70;99.90;;;;;;5002561;28;20490;-73
2022/11/20 01:33:25;;;;;;;13.00;5.70;;;3.70;99.90;;;;;;4984985;28;20045;-73
2022/11/20 01:35:52;;;;;;;14.85;7.35;;;3.70;99.90;;;;;;4988426;28;20066;-74
2022/11/20 01:38:19;;;;;;;14.32;6.63;;;3.70;99.90;;;;;;4999189;28;20490;-73
2022/11/20 01:40:53;;;;;;;14.40;6.18;;;3.70;99.90;;;;;;4988086;28;20529;-73
2022/11/20 01:43:20;;;;;;;8.73;4.63;;;3.80;99.90;;;;;;4984369;28;20022;-75
2022/11/20 01:46:15;;;;;;;5.22;3.65;;;3.80;99.90;;;;;;4988079;28;20486;-73
2022/11/20 01:48:53;;;;;;;6.50;3.08;;;3.80;99.90;;;;;;4984140;28;20039;-73
2022/11/20 01:51:44;;;;;;;12.75;5.65;;;3.70;99.90;;;;;;4988197;28;20035;-74
2022/11/20 01:54:22;;;;;;;7.05;3.95;;;3.70;99.90;;;;;;4990506;28;20124;-74
2022/11/20 01:56:51;;;;;;;11.07;6.20;;;3.60;99.90;;;;;;5001534;28;20398;-74
2022/11/20 01:59:19;;;;;;;8.90;3.88;;;3.60;99.90;;;;;;5000217;28;20089;-74
2022/11/20 02:01:46;;;;;;;10.80;4.15;;;3.60;99.90;;;;;;5001756;28;20026;-74
2022/11/20 02:04:13;;;;;;;8.95;4.75;;;3.60;99.90;;;;;;4994312;28;20033;-74
2022/11/20 02:07:03;;;;;;;9.63;5.18;;;3.60;99.90;;;;;;4962301;28;20031;-74
2022/11/20 02:09:28;;;;;;;11.55;4.55;;;3.60;99.90;;;;;;4956500;28;20046;-74
2022/11/20 02:11:54;;;;;;;8.15;5.00;;;3.70;99.90;;;;;;4974393;28;20050;-74
2022/11/20 02:14:22;;;;;;;8.23;4.60;;;3.70;99.90;;;;;;5001066;28;20045;-74
2022/11/20 02:16:49;;;;;;;9.45;4.47;;;3.70;99.90;;;;;;4981581;28;20034;-74
2022/11/20 02:19:29;;;;;;;6.75;4.38;;;3.60;99.90;;;;;;4999719;28;20585;-74
2022/11/20 02:22:14;;;;;;;14.15;4.70;;;3.60;99.90;;;;;;4999784;28;20088;-74
2022/11/20 02:24:41;;;;;;;8.07;4.60;;;3.60;99.90;;;;;;4976109;28;20038;-74
2022/11/20 02:27:16;;;;;;;8.63;4.50;;;3.60;99.90;;;;;;4972304;28;20073;-74
2022/11/20 02:29:52;;;;;;;10.73;4.90;;;3.60;99.90;;;;;;4984075;28;20560;-74
2022/11/20 02:32:39;;;;;;;14.68;6.03;;;3.60;99.90;;;;;;4997029;28;20038;-73
2022/11/20 02:35:18;;;;;;;9.07;3.72;;;3.70;99.90;;;;;;4967798;28;20046;-73
2022/11/20 02:37:48;;;;;;;6.85;4.60;;;3.70;99.90;;;;;;4977572;28;20050;-74
2022/11/20 02:40:14;;;;;;;11.30;5.65;;;3.70;99.90;;;;;;5000423;28;20033;-74
2022/11/20 02:42:40;;;;;;;14.40;4.68;;;3.70;99.90;;;;;;4994890;23;20422;-70
2022/11/20 02:45:07;;;;;;;7.18;3.97;;;3.70;99.90;;;;;;4991369;28;20026;-70
2022/11/20 02:47:33;;;;;;;10.60;4.75;;;3.70;99.90;;;;;;4989347;28;20041;-70
2022/11/20 02:49:59;;;;;;;8.93;4.78;;;3.80;99.90;;;;;;4971178;28;20505;-69
2022/11/20 02:52:25;;;;;;;6.65;4.88;;;3.70;99.90;;;;;;4979976;28;20392;-70
2022/11/20 02:54:51;;;;;;;8.07;4.07;;;3.70;99.90;;;;;;4988246;28;20041;-69
2022/11/20 02:57:16;;;;;;;13.23;5.43;;;3.60;99.90;;;;;;4983901;28;20034;-69
2022/11/20 02:59:42;;;;;;;9.35;4.70;;;3.60;99.90;;;;;;4986876;28;20113;-69
2022/11/20 03:02:08;;;;;;;12.52;4.15;;;3.60;99.90;;;;;;4985791;28;20138;-69
2022/11/20 03:04:33;;;;;;;5.90;3.60;;;3.70;99.90;;;;;;4986972;28;20042;-70
2022/11/20 03:06:59;;;;;;;7.90;4.38;;;3.70;99.90;;;;;;4987560;28;20092;-70
2022/11/20 03:09:25;;;;;;;11.07;5.43;;;3.70;99.90;;;;;;4985732;28;20037;-70
2022/11/20 03:11:51;;;;;;;13.50;4.80;;;3.60;99.90;;;;;;4988281;28;20038;-70
2022/11/20 03:14:16;;;;;;;8.88;4.63;;;3.60;99.90;;;;;;4984662;28;20035;-69
2022/11/20 03:16:42;;;;;;;8.23;4.97;;;3.60;99.90;;;;;;4979893;28;20041;-69
2022/11/20 03:19:08;;;;;;;13.10;5.57;;;3.70;99.90;;;;;;4981716;28;20618;-69
2022/11/20 03:21:34;;;;;;;7.15;3.85;;;3.70;99.90;;;;;;4989336;28;20113;-69
2022/11/20 03:24:01;;;;;;;8.60;5.13;;;3.70;99.90;;;;;;4982115;28;20042;-70
2022/11/20 03:26:27;;;;;;;7.18;3.95;;;3.80;99.90;;;;;;4979522;28;20106;-70
2022/11/20 03:28:56;;;;;;;8.13;4.57;;;3.80;99.90;;;;;;4989340;28;20022;-70
2022/11/20 03:31:29;;;;;;;8.18;3.55;;;3.80;99.90;;;;;;4983951;28;20419;-70
2022/11/20 03:33:57;;;;;;;10.48;5.75;;;3.80;99.90;;;;;;4972958;28;20033;-69
2022/11/20 03:36:23;;;;;;;11.82;5.78;;;3.80;99.90;;;;;;4984822;28;20376;-70
2022/11/20 03:38:49;;;;;;;12.82;6.40;;;3.80;99.90;;;;;;4988548;28;20030;-70
2022/11/20 03:41:26;;;;;;;10.27;3.60;;;3.90;99.90;;;;;;4979976;28;20074;-70
2022/11/20 03:43:58;;;;;;;9.05;3.70;;;3.90;99.90;;;;;;4989338;28;20038;-70
2022/11/20 03:46:25;;;;;;;10.02;4.88;;;3.80;99.90;;;;;;4983522;28;20030;-70
2022/11/20 03:48:52;;;;;;;13.18;5.47;;;3.80;99.90;;;;;;4988763;28;20030;-69
2022/11/20 03:51:27;;;;;;;11.40;5.40;;;3.90;99.90;;;;;;4981613;28;20069;-69
2022/11/20 03:53:55;;;;;;;14.35;5.43;;;3.90;99.90;;;;;;4991793;28;20504;-70
2022/11/20 03:56:31;;;;;;;7.78;4.47;;;3.90;99.90;;;;;;4987108;28;20094;-70
2022/11/20 03:58:57;;;;;;;9.35;4.20;;;3.90;99.90;;;;;;4992483;28;20433;-70
2022/11/20 04:01:31;;;;;;;10.93;4.72;;;4.00;99.90;;;;;;5003590;28;20497;-69
2022/11/20 04:03:57;;;;;;;17.67;4.75;;;4.00;99.90;;;;;;4975731;28;20392;-70
2022/11/20 04:06:27;;;;;;;8.15;4.07;;;4.00;99.90;;;;;;4982794;28;20033;-69
2022/11/20 04:08:57;;;;;;;13.32;4.85;;;4.00;99.90;;;;;;4992421;28;20034;-70
2022/11/20 04:11:29;;;;;;;12.88;4.97;;;4.00;99.90;;;;;;4981506;28;20054;-69
2022/11/20 04:14:05;;;;;;;13.00;4.95;;;4.00;99.90;;;;;;4991013;28;20029;-70
2022/11/20 04:16:36;;;;;;;7.40;4.32;;;4.00;99.90;;;;;;4977340;28;20031;-70
2022/11/20 04:19:09;;;;;;;14.40;3.83;;;4.00;99.90;;;;;;4991158;28;20164;-70
2022/11/20 04:21:35;;;;;;;8.13;4.03;;;4.10;99.90;;;;;;4982358;28;20050;-69
2022/11/20 04:24:01;;;;;;;12.63;5.45;;;4.10;99.90;;;;;;4992515;28;20482;-69
2022/11/20 04:26:29;;;;;;;5.22;3.15;;;4.10;99.90;;;;;;4986192;28;20030;-70
2022/11/20 04:28:56;;;;;;;7.43;3.50;;;4.20;99.90;;;;;;4990972;28;20030;-70
2022/11/20 04:31:26;;;;;;;8.30;5.38;;;4.20;99.90;;;;;;4986406;28;20109;-70
2022/11/20 04:33:52;;;;;;;7.82;4.07;;;4.20;99.90;;;;;;4992139;28;20032;-69
2022/11/20 04:36:25;;;;;;;12.40;4.75;;;4.20;99.90;;;;;;4982630;28;20027;-69
2022/11/20 04:38:59;;;;;;;12.30;4.13;;;4.30;99.90;;;;;;4991475;28;20034;-70
2022/11/20 04:41:29;;;;;;;8.45;4.90;;;4.30;99.90;;;;;;4981554;28;20041;-69
2022/11/20 04:44:03;;;;;;;10.38;3.97;;;4.20;99.90;;;;;;4990807;28;20486;-69
2022/11/20 04:46:32;;;;;;;11.55;5.00;;;4.20;99.90;;;;;;4981077;28;20482;-70
2022/11/20 04:48:57;;;;;;;8.02;3.72;;;4.20;99.90;;;;;;4991699;28;20391;-70
2022/11/20 04:51:23;;;;;;;10.90;6.03;;;4.20;99.90;;;;;;4986382;28;20034;-69
2022/11/20 04:53:49;;;;;;;10.20;5.15;;;4.20;99.90;;;;;;4976176;28;20042;-70
2022/11/20 04:56:15;;;;;;;11.05;4.70;;;4.20;99.90;;;;;;4982441;28;20039;-70
2022/11/20 04:58:42;;;;;;;6.22;3.47;;;4.20;99.90;;;;;;4989963;28;20490;-69
2022/11/20 05:01:23;;;;;;;9.85;4.00;;;4.20;99.90;;;;;;4981924;28;20030;-70
2022/11/20 05:03:49;;;;;;;6.22;3.05;;;4.20;99.90;;;;;;4990933;28;20030;-70
2022/11/20 05:06:18;;;;;;;5.63;3.40;;;4.20;99.90;;;;;;4981430;28;20038;-70
2022/11/20 05:08:43;;;;;;;7.43;3.53;;;4.30;99.90;;;;;;4989952;28;20030;-70
2022/11/20 05:11:16;;;;;;;13.20;4.30;;;4.30;99.90;;;;;;4976366;28;20038;-70
2022/11/20 05:13:42;;;;;;;6.38;3.15;;;4.30;99.90;;;;;;4976186;28;20489;-69
2022/11/20 05:16:23;;;;;;;9.50;4.05;;;4.20;99.90;;;;;;4983722;28;20117;-69
2022/11/20 05:18:50;;;;;;;10.10;3.92;;;4.20;99.90;;;;;;4975434;28;20612;-70
2022/11/20 05:21:17;;;;;;;8.23;4.13;;;4.20;99.90;;;;;;4981168;28;20038;-69
2022/11/20 05:23:44;;;;;;;6.25;3.80;;;4.30;99.90;;;;;;4989347;28;20053;-69
2022/11/20 05:26:23;;;;;;;10.77;4.22;;;4.20;99.90;;;;;;4981448;28;20037;-70
2022/11/20 05:28:50;;;;;;;8.40;4.53;;;4.20;99.90;;;;;;4979173;28;20034;-70
2022/11/20 05:31:20;;;;;;;5.93;3.17;;;4.30;99.90;;;;;;4980845;28;20062;-69
2022/11/20 05:33:46;;;;;;;7.80;3.95;;;4.30;99.90;;;;;;4989112;28;20133;-69
2022/11/20 05:36:14;;;;;;;5.05;3.67;;;4.30;99.90;;;;;;4980899;28;20505;-69
2022/11/20 05:38:41;;;;;;;6.93;4.10;;;4.30;99.90;;;;;;4987510;28;20096;-70
2022/11/20 05:41:11;;;;;;;10.48;3.70;;;4.30;99.90;;;;;;4963019;28;20490;-69
2022/11/20 05:43:39;;;;;;;6.22;4.20;;;4.30;99.90;;;;;;4983997;28;20030;-69
2022/11/20 05:46:07;;;;;;;9.27;4.65;;;4.30;99.90;;;;;;4979641;28;20030;-69
2022/11/20 05:48:35;;;;;;;4.50;3.50;;;4.30;99.90;;;;;;4986396;28;20077;-70
2022/11/20 05:51:03;;;;;;;7.07;4.20;;;4.30;99.90;;;;;;4980405;28;20038;-69
2022/11/20 05:53:29;;;;;;;9.38;4.25;;;4.30;99.90;;;;;;4987259;28;20438;-69
2022/11/20 05:56:00;;;;;;;7.30;4.07;;;4.30;99.90;;;;;;4965578;28;20030;-69
2022/11/20 05:58:26;;;;;;;6.05;4.90;;;4.30;99.90;;;;;;4977649;28;20030;-70
2022/11/20 06:00:52;;;;;;;5.32;3.33;;;4.30;99.90;;;;;;4979055;28;20038;-70
2022/11/20 06:03:17;;;;;;;9.15;5.28;;;4.30;99.90;;;;;;4985420;28;20026;-69
2022/11/20 06:05:43;;;;;;;9.68;5.10;;;4.30;99.90;;;;;;4981887;28;20038;-69
2022/11/20 06:08:09;;;;;;;9.25;4.38;;;4.30;99.90;;;;;;4979373;28;20474;-69
2022/11/20 06:10:34;;;;;;;14.63;4.20;;;4.30;99.90;;;;;;4970758;28;20031;-70
2022/11/20 06:13:00;;;;;;;4.82;3.85;;;4.40;99.90;;;;;;4981050;28;20035;-70
2022/11/20 06:15:26;;;;;;;5.93;3.25;;;4.40;99.90;;;;;;4981458;28;20050;-69
2022/11/20 06:17:53;;;;;;;6.78;4.30;;;4.40;99.90;;;;;;4981441;28;20043;-70
2022/11/20 06:20:20;;;;;;;11.18;4.57;;;4.40;99.90;;;;;;4988724;28;20628;-70
2022/11/20 06:22:46;;;;;;;6.82;3.42;;;4.40;99.90;;;;;;4981465;28;20031;-69
2022/11/20 06:25:12;;;;;;;6.18;3.13;;;4.40;99.90;;;;;;4991569;28;20153;-69
2022/11/20 06:27:38;;;;;;;9.98;4.90;;;4.50;99.90;;;;;;4980881;28;20455;-70
2022/11/20 06:30:05;;;;;;;5.53;3.78;;;4.50;99.90;;;;;;4990928;28;20030;-69
2022/11/20 06:32:30;;;;;;;5.40;3.45;;;4.50;99.90;;;;;;4981780;28;20491;-70
2022/11/20 06:34:56;;;;;;;9.40;4.10;;;4.50;99.90;;;;;;4990253;28;20034;-70
2022/11/20 06:37:22;;;;;;;6.68;4.00;;;4.50;99.90;;;;;;4983432;28;20050;-70
2022/11/20 06:39:48;;;;;;;5.07;4.05;;;4.50;99.90;;;;;;4987671;28;20034;-69
2022/11/20 06:42:14;;;;;;;9.73;4.47;;;4.60;99.90;;;;;;4984167;28;20037;-69
2022/11/20 06:44:39;;;;;;;15.40;5.68;;;4.60;99.90;;;;;;4986822;28;20030;-70
2022/11/20 06:47:05;;;;;;;8.02;4.13;;;4.60;99.90;;;;;;4984997;28;20077;-69
2022/11/20 06:49:31;;;;;;;7.28;4.05;;;4.70;99.90;;;;;;4986647;28;20553;-69
2022/11/20 06:51:57;;;;;;;6.60;3.53;;;4.70;99.90;;;;;;4987066;28;20556;-69
2022/11/20 06:54:22;;;;;;;11.05;4.38;;;4.70;99.90;;;;;;4984530;28;20078;-70
2022/11/20 06:56:48;;;;;;;9.63;4.88;;;4.70;99.90;;;;;;4987539;28;20398;-69
2022/11/20 06:59:14;;;;;;;10.88;4.28;;;4.80;99.90;;;;;;4984382;28;20034;-69
2022/11/20 07:01:40;;;;;;;8.13;2.90;;;4.70;99.90;;;;;;4984939;28;20043;-69
2022/11/20 07:04:06;;;;;;;6.13;3.95;;;4.70;99.90;;;;;;4980015;28;20026;-70
2022/11/20 07:06:31;;;;;;;9.25;2.92;;;4.70;99.90;;;;;;4972429;28;20439;-69
2022/11/20 07:08:57;;;;;;;11.35;5.80;;;4.80;99.90;;;;;;4982189;28;20029;-69
2022/11/20 07:11:23;;;;;;;10.05;5.18;;;4.80;99.90;;;;;;4984447;28;20045;-68
2022/11/20 07:13:49;;;;;;;12.68;5.43;;;4.80;99.90;;;;;;4982958;28;20026;-68
2022/11/20 07:16:15;;;;;;;9.45;3.92;;;4.80;99.90;;;;;;4985044;28;20042;-68
2022/11/20 07:18:40;;;;;;;12.57;6.47;;;4.80;99.90;;;;;;4983434;28;20026;-70
2022/11/20 07:21:09;;;;;;;12.00;6.13;;;4.80;99.90;;;;;;4991582;28;20057;-69
2022/11/20 07:23:36;;;;;;;12.45;4.10;;;4.80;99.90;;;;;;4998068;28;20022;-69
2022/11/20 07:26:08;;;;;;;20.58;6.45;;;4.80;99.90;;;;;;4987275;28;20443;-69
2022/11/20 07:28:34;;;;;;;10.10;4.90;;;4.80;99.90;;;;;;4986045;28;20037;-70
2022/11/20 07:31:00;;;;;;;11.00;5.40;;;4.70;99.90;;;;;;4988287;28;20153;-71
2022/11/20 07:33:26;;;;;;;9.25;4.65;;;4.80;99.90;;;;;;4985983;28;20034;-70
2022/11/20 07:35:52;;;;;;;10.70;4.93;;;4.80;99.90;;;;;;4988666;28;20047;-71
2022/11/20 07:38:18;;;;;;;14.40;5.97;;;4.80;99.90;;;;;;4986102;28;20027;-69
2022/11/20 07:40:44;;;;;;;8.95;4.47;;;4.90;99.90;;;;;;4986903;28;20485;-69
2022/11/20 07:43:09;;;;;;;10.02;3.95;;;4.90;99.90;;;;;;4985791;28;20030;-69
2022/11/20 07:45:36;;;;;;;13.48;5.70;;;4.90;99.90;;;;;;4988564;28;20153;-72
2022/11/20 07:48:02;;;;;;;9.57;6.03;;;4.90;99.90;;;;;;4985275;28;20533;-69
2022/11/20 07:50:28;;;;;;;10.63;4.93;;;4.90;99.90;;;;;;4989834;28;20043;-70
2022/11/20 07:53:04;;;;;;;6.85;4.78;;;4.90;99.90;;;;;;4983458;28;20062;-67
2022/11/20 07:55:31;;;;;;;18.83;4.55;;;4.90;99.90;;;;;;4988574;28;20057;-67
2022/11/20 07:57:57;;;;;;;9.88;4.38;;;5.00;99.90;;;;;;4976120;28;20062;-68
2022/11/20 08:00:23;;;;;;;9.52;4.68;;;5.00;99.90;;;;;;4987917;28;20042;-68
2022/11/20 08:02:49;;;;;;;9.43;5.18;;;5.10;99.90;;;;;;4985760;28;20031;-68
2022/11/20 08:05:15;;;;;;;10.95;5.28;;;5.10;99.90;;;;;;4984509;28;20090;-67
2022/11/20 08:07:43;;;;;;;15.52;4.40;;;5.20;99.90;;;;;;4979226;28;20438;-68
2022/11/20 08:10:12;;;;;;;6.57;3.45;;;5.20;99.90;;;;;;4975403;28;20030;-67
2022/11/20 08:15:39;;;;;;;10.23;4.10;;;5.20;99.90;;;;;;4973859;28;20050;-68
2022/11/20 08:18:10;;;;;;;9.93;5.35;;;5.30;99.90;;;;;;4980814;28;20066;-68
2022/11/20 08:20:36;;;;;;;28.00;11.45;;;5.40;99.90;;;;;;4975108;28;20128;-67
2022/11/20 08:23:05;;;;;;;11.90;5.70;;;5.40;99.90;;;;;;4978389;28;20081;-68
2022/11/20 08:25:32;;;;;;;12.48;4.72;;;5.50;99.90;;;;;;4997339;28;20074;-67
2022/11/20 08:28:00;;;;;;;11.35;5.53;;;5.50;99.90;;;;;;4984430;28;20027;-67
2022/11/20 08:30:26;;;;;;;16.85;6.65;;;5.60;99.90;;;;;;4987135;28;20046;-67
2022/11/20 08:32:53;;;;;;;15.30;4.97;;;5.60;99.90;;;;;;4982707;28;20049;-67
2022/11/20 08:35:20;;;;;;;14.38;6.85;;;5.60;99.90;;;;;;4988830;28;20747;-68
2022/11/20 08:37:47;;;;;;;10.38;4.30;;;5.60;99.90;;;;;;4972679;28;20487;-67
2022/11/20 08:40:14;;;;;;;8.93;4.32;;;5.60;99.90;;;;;;4990442;28;20030;-68
2022/11/20 08:42:50;;;;;;;13.25;5.90;;;5.70;99.90;;;;;;4997244;23;20387;-72
2022/11/20 08:45:18;;;;;;;8.18;4.07;;;5.60;99.90;;;;;;4985141;28;20502;-72
2022/11/20 08:47:44;;;;;;;14.32;6.70;;;5.60;99.90;;;;;;4989090;28;20441;-73
2022/11/20 08:50:13;;;;;;;15.05;6.85;;;5.50;99.90;;;;;;4982797;28;20163;-71
2022/11/20 08:52:39;;;;;;;17.15;6.47;;;5.50;99.90;;;;;;5003002;28;20058;-71
2022/11/20 08:55:06;;;;;;;17.55;6.25;;;5.50;99.90;;;;;;4991986;28;20088;-72
2022/11/20 08:57:36;;;;;;;10.73;5.93;;;5.40;99.90;;;;;;4988486;28;20044;-73
2022/11/20 09:00:06;;;;;;;23.43;7.23;;;5.40;99.90;;;;;;4979816;28;20038;-72
2022/11/20 09:02:32;;;;;;;15.60;6.20;;;5.40;99.90;;;;;;4976143;28;20073;-72
2022/11/20 09:04:58;;;;;;;17.80;5.70;;;5.30;99.90;;;;;;4983943;28;20027;-71
2022/11/20 09:07:24;;;;;;;12.88;7.05;;;5.20;99.90;;;;;;4997717;28;20023;-71
2022/11/20 09:09:49;;;;;;;21.83;7.90;;;5.10;99.90;;;;;;4983761;28;20049;-71
2022/11/20 09:12:15;;;;;;;15.02;7.10;;;5.10;99.90;;;;;;4992560;28;20043;-72
2022/11/20 09:14:41;;;;;;;18.10;8.35;;;5.10;99.90;;;;;;4981157;28;20049;-72
2022/11/20 09:17:07;;;;;;;20.33;6.07;;;5.10;99.90;;;;;;4982015;28;20050;-72
2022/11/20 09:19:33;;;;;;;14.75;7.93;;;5.10;99.90;;;;;;4986638;28;20042;-71
2022/11/20 09:21:59;;;;;;;19.70;7.63;;;5.10;99.90;;;;;;4981569;28;20058;-71
2022/11/20 09:24:26;;;;;;;14.63;7.22;;;5.10;99.90;;;;;;4987472;28;20114;-71
2022/11/20 09:26:52;;;;;;;17.73;7.40;;;5.10;99.90;;;;;;4989507;28;20046;-71
2022/11/20 09:29:18;;;;;;;29.42;9.48;;;5.20;99.90;;;;;;4986161;28;20097;-71
2022/11/20 09:31:44;;;;;;;15.43;6.80;;;5.10;99.90;;;;;;4989391;28;20033;-69
2022/11/20 09:34:09;;;;;;;21.63;6.70;;;5.20;99.90;;;;;;4987840;28;20060;-69
2022/11/20 09:36:35;;;;;;;17.73;8.02;;;5.20;99.90;;;;;;4988365;28;20034;-71
2022/11/20 09:39:01;;;;;;;22.45;8.70;;;5.20;99.90;;;;;;5003775;28;20173;-70
2022/11/20 09:41:51;;;;;;;18.50;8.48;;;5.20;99.90;;;;;;4986534;28;20046;-71
2022/11/20 09:44:23;;;;;;;16.75;6.55;;;5.30;99.90;;;;;;4982620;28;20038;-71
2022/11/20 09:47:41;;;;;;;17.88;9.38;;;5.30;99.90;;;;;;4989529;28;20034;-72
2022/11/20 09:50:28;;;;;;;24.60;6.57;;;5.30;99.90;;;;;;4983004;28;20401;-73
2022/11/20 09:53:22;;;;;;;16.73;6.80;;;5.30;99.90;;;;;;4998281;28;20124;-71
2022/11/20 09:55:49;;;;;;;18.27;6.63;;;5.40;99.90;;;;;;4985204;28;20025;-72
2022/11/20 09:58:50;;;;;;;14.15;6.80;;;5.40;99.90;;;;;;4981716;28;20058;-71
2022/11/20 10:01:19;;;;;;;17.45;7.47;;;5.50;99.90;;;;;;4971993;28;20035;-73
2022/11/20 10:04:13;;;;;;;23.85;8.02;;;5.50;99.90;;;;;;4988017;28;20085;-73
2022/11/20 10:07:16;;;;;;;25.30;9.27;;;5.60;99.90;;;;;;4973512;28;20549;-70
2022/11/20 10:09:54;;;;;;;27.95;9.38;;;5.50;99.90;;;;;;4994348;28;20023;-71
2022/11/20 10:12:31;;;;;;;20.52;7.00;;;5.30;99.90;;;;;;4987199;28;20461;-71
2022/11/20 10:15:11;;;;;;;19.38;10.40;;;5.20;99.90;;;;;;4980066;28;20050;-71
2022/11/20 10:18:04;;;;;;;26.30;8.27;;;5.40;99.90;;;;;;4973741;28;20161;-73
2022/11/20 10:20:41;;;;;;;24.00;9.90;;;5.40;99.90;;;;;;4979602;28;20042;-72
2022/11/20 10:23:27;;;;;;;20.08;8.25;;;5.40;99.90;;;;;;4983811;28;20525;-71
2022/11/20 10:26:13;;;;;;;17.73;9.50;;;5.50;99.90;;;;;;4973284;28;20038;-74
2022/11/20 10:28:47;;;;;;;22.55;9.38;;;5.50;99.90;;;;;;4981149;28;20089;-78
2022/11/20 10:31:39;;;;;;;19.48;7.55;;;5.50;99.90;;;;;;4972074;28;20042;-73
2022/11/20 10:34:31;;;;;;;16.42;7.97;;;5.50;99.90;;;;;;4996618;28;20537;-70
2022/11/20 10:37:09;;;;;;;16.77;8.18;;;5.60;99.90;;;;;;4990958;28;20130;-72
2022/11/20 10:40:00;;;;;;;26.42;10.27;;;5.70;99.90;;;;;;4982256;28;20061;-72
2022/11/20 10:43:24;;;;;;;15.48;6.60;;;5.60;99.90;;;;;;4987877;28;20037;-73
2022/11/20 10:46:04;;;;;;;15.93;7.38;;;5.50;99.90;;;;;;4950108;29;20046;-71
2022/11/20 10:48:32;;;;;;;18.88;8.30;;;5.60;99.90;;;;;;4962336;28;20175;-72
2022/11/20 10:51:28;;;;;;;18.52;7.97;;;5.60;99.90;;;;;;4971856;28;20368;-71
2022/11/20 10:54:12;;;;;;;23.52;7.80;;;5.70;99.90;;;;;;4987943;28;20042;-71
2022/11/20 10:56:52;;;;;;;22.30;7.97;;;5.80;99.90;;;;;;4973090;28;20041;-72
2022/11/20 10:59:38;;;;;;;14.75;6.65;;;5.80;99.90;;;;;;4978748;28;20132;-70
2022/11/20 11:02:33;;;;;;;14.82;7.18;;;5.90;99.90;;;;;;4989691;28;20057;-71
2022/11/20 11:05:32;;;;;;;20.58;8.73;;;5.80;99.90;;;;;;4982030;28;20019;-72
2022/11/20 11:07:58;;;;;;;20.35;6.82;;;5.90;99.90;;;;;;4992093;28;20038;-72
2022/11/20 11:10:51;;;;;;;14.70;7.55;;;6.00;99.90;;;;;;5000122;28;20034;-71
2022/11/20 11:13:29;;;;;;;15.38;6.68;;;6.10;99.90;;;;;;4998692;28;20043;-71
2022/11/20 11:15:56;;;;;;;26.15;12.13;;;6.00;99.90;;;;;;5004661;28;20042;-71
2022/11/20 11:18:31;;;;;;;18.58;7.30;;;6.00;99.90;;;;;;4988839;28;20035;-72
2022/11/20 11:21:00;;;;;;;21.75;7.35;;;6.00;99.90;;;;;;4972477;28;20030;-72
2022/11/20 11:23:33;;;;;;;15.35;8.18;;;6.10;99.90;;;;;;5002573;28;20030;-72
2022/11/20 11:26:02;;;;;;;20.02;8.38;;;6.30;99.90;;;;;;4987950;28;20122;-73
2022/11/20 11:28:28;;;;;;;20.75;8.38;;;6.50;99.90;;;;;;4994996;28;20081;-72
2022/11/20 11:30:55;;;;;;;13.02;7.13;;;6.70;99.90;;;;;;4989454;28;20054;-71
2022/11/20 11:33:33;;;;;;;29.40;9.45;;;7.00;99.90;;;;;;4999656;28;20406;-73
2022/11/20 11:36:16;;;;;;;23.52;8.82;;;8.20;99.90;;;;;;5004338;28;20545;-72
2022/11/20 11:38:43;;;;;;;19.30;7.82;;;9.80;99.90;;;;;;5001975;28;20500;-72
2022/11/20 11:41:25;;;;;;;24.25;8.80;;;10.50;99.90;;;;;;4977533;28;20046;-73
2022/11/20 11:46:56;;;;;;;17.65;8.43;;;10.50;99.90;;;;;;4985035;28;20089;-72
2022/11/20 11:49:22;;;;;;;12.60;5.97;;;9.90;99.90;;;;;;4979442;28;20058;-72
2022/11/20 11:52:22;;;;;;;14.95;6.57;;;9.50;99.90;;;;;;4977908;28;20089;-72
2022/11/20 11:54:59;;;;;;;19.33;8.00;;;9.10;99.90;;;;;;4980220;28;20945;-73
2022/11/20 11:57:57;;;;;;;14.10;6.45;;;9.00;99.90;;;;;;4984126;28;20173;-73
2022/11/20 12:00:23;;;;;;;19.50;7.53;;;9.00;99.90;;;;;;4984817;28;20089;-73
2022/11/20 12:03:17;;;;;;;22.73;8.95;;;8.60;99.90;;;;;;4980695;28;20031;-70
2022/11/20 12:06:10;;;;;;;15.85;6.25;;;8.80;99.90;;;;;;4994191;28;20045;-71
2022/11/20 12:08:47;;;;;;;16.13;6.50;;;8.70;99.90;;;;;;4989634;28;20375;-72
2022/11/20 12:11:32;;;;;;;16.73;8.05;;;8.80;99.90;;;;;;4979687;28;20039;-71
2022/11/20 12:14:23;;;;;;;16.23;7.03;;;8.90;99.90;;;;;;4974016;28;20030;-70
2022/11/20 12:16:52;;;;;;;14.77;7.22;;;8.90;99.90;;;;;;4981338;28;20823;-72
2022/11/20 12:19:18;;;;;;;15.25;5.68;;;8.70;99.90;;;;;;4980105;28;20494;-71
2022/11/20 12:22:34;;;;;;;15.65;6.55;;;8.60;99.90;;;;;;5000975;28;20039;-72
2022/11/20 12:25:22;;;;;;;15.35;5.15;;;8.80;99.90;;;;;;4990596;28;20050;-75
2022/11/20 12:28:11;;;;;;;18.80;5.72;;;8.90;99.90;;;;;;5006347;28;20073;-68
2022/11/20 12:31:12;;;;;;;18.65;6.82;;;9.00;99.90;;;;;;4985057;28;20085;-70
2022/11/20 12:34:07;;;;;;;16.98;6.43;;;9.10;99.90;;;;;;4975459;28;20518;-73
2022/11/20 12:36:48;;;;;;;21.70;7.38;;;9.10;99.90;;;;;;4954300;28;20039;-73
2022/11/20 12:39:25;;;;;;;18.15;6.88;;;9.20;99.90;;;;;;4999978;28;20122;-71
2022/11/20 12:46:08;;;;;;;15.18;6.63;;;8.80;99.90;;;;;;4982138;28;20058;-72
2022/11/20 12:48:52;;;;;;;18.30;6.47;;;8.80;99.90;;;;;;5003003;28;20441;-73
2022/11/20 12:52:11;;;;;;;11.15;5.95;;;8.80;99.90;;;;;;4987307;28;20503;-71
2022/11/20 12:55:15;;;;;;;18.83;7.38;;;8.70;99.90;;;;;;4966023;28;20054;-71
2022/11/20 12:58:05;;;;;;;14.15;6.22;;;8.60;99.90;;;;;;4981296;28;20042;-70
2022/11/20 13:00:34;;;;;;;13.18;6.60;;;8.50;99.90;;;;;;5004415;28;20398;-70
2022/11/20 13:03:48;;;;;;;18.15;7.75;;;8.40;99.90;;;;;;5000530;28;20043;-71
2022/11/20 13:06:17;;;;;;;18.77;7.85;;;8.30;99.90;;;;;;4995829;28;20022;-71
2022/11/20 13:08:53;;;;;;;22.42;7.97;;;8.20;99.90;;;;;;4990284;28;20386;-68
2022/11/20 13:11:27;;;;;;;15.48;6.03;;;8.10;99.90;;;;;;4994718;28;20042;-69
2022/11/20 13:13:58;;;;;;;16.88;7.00;;;8.10;99.90;;;;;;4987987;28;20062;-68
2022/11/20 13:16:53;;;;;;;17.08;6.97;;;8.10;99.90;;;;;;4984308;28;20122;-68
2022/11/20 13:19:56;;;;;;;16.08;6.72;;;8.20;99.90;;;;;;4973495;28;20026;-69
2022/11/20 13:22:48;;;;;;;8.48;3.72;;;8.30;99.90;;;;;;4979646;28;20061;-69
2022/11/20 13:26:17;;;;;;;10.50;4.97;;;8.40;99.90;;;;;;4980915;28;20491;-69
2022/11/20 13:29:20;;;;;;;10.40;4.75;;;8.40;99.90;;;;;;4989446;28;20031;-69